Time;durP1;ratioP1;P1;durP2;ratioP2;P2;SDS_P1;SDS_P2;PMS_P1;PMS_P2;Temp;Humidity;BMP_temperature;BMP_pressure;BME280_temperature;BME280_humidity;BME280_pressure;Samples;Min_cycle;Max_cycle;Signal;HPM_P1;HPM_P2
2022/01/01 00:01:30;;;;;;;;;;;25.80;99.90;;;;;;5072851;28;19909;-70
2022/01/01 00:03:57;;;;;;;;;;;25.90;99.90;;;;;;5073159;28;19908;-70
2022/01/01 00:06:23;;;;;;;;;;;25.80;99.90;;;;;;5073182;28;19908;-70
2022/01/01 00:08:50;;;;;;;;;;;25.80;99.90;;;;;;5073006;28;19909;-71
2022/01/01 00:11:17;;;;;;;;;;;25.80;99.90;;;;;;5072621;28;19932;-71
2022/01/01 00:13:44;;;;;;;;;;;25.90;99.90;;;;;;5073203;28;19920;-70
2022/01/01 00:16:10;;;;;;;;;;;26.00;99.90;;;;;;5072313;28;19913;-69
2022/01/01 00:18:37;;;;;;;;;;;26.00;99.90;;;;;;5073043;28;20035;-71
2022/01/01 00:21:04;;;;;;;;;;;26.00;99.90;;;;;;5073251;28;19919;-70
2022/01/01 00:23:31;;;;;;;;;;;26.00;99.90;;;;;;5072600;28;19919;-71
2022/01/01 00:25:58;;;;;;;;;;;25.90;99.90;;;;;;5072746;28;19912;-71
2022/01/01 00:28:25;;;;;;;;;;;25.90;99.90;;;;;;5072860;28;19916;-71
2022/01/01 00:30:51;;;;;;;;;;;26.00;99.90;;;;;;5072859;28;19909;-71
2022/01/01 00:33:18;;;;;;;;;;;26.20;99.90;;;;;;5072822;28;19923;-71
2022/01/01 00:35:45;;;;;;;;;;;26.10;99.90;;;;;;5072866;28;19908;-71
2022/01/01 00:38:11;;;;;;;;;;;26.20;99.90;;;;;;5072339;28;19908;-71
2022/01/01 00:40:38;;;;;;;;;;;26.50;99.90;;;;;;5072810;28;19916;-70
2022/01/01 00:43:05;;;;;;;;;;;26.80;99.90;;;;;;5072506;28;20371;-70
2022/01/01 00:45:31;;;;;;;;;;;26.60;99.90;;;;;;5072360;28;19912;-70
2022/01/01 00:47:58;;;;;;;;;;;26.60;99.90;;;;;;5071883;28;20023;-69
2022/01/01 00:50:25;;;;;;;;;;;26.60;99.90;;;;;;5072296;28;19916;-70
2022/01/01 00:52:52;;;;;;;;;;;26.70;99.90;;;;;;5072274;28;20333;-71
2022/01/01 00:55:19;;;;;;;;;;;26.90;99.90;;;;;;5072342;28;19962;-70
2022/01/01 00:57:47;;;;;;;;;;;27.00;99.90;;;;;;5071918;28;20400;-69
2022/01/01 01:00:14;;;;;;;;;;;27.30;99.90;;;;;;5072279;28;19913;-69
2022/01/01 01:02:40;;;;;;;;;;;27.50;99.90;;;;;;5071447;28;19919;-70
2022/01/01 01:05:07;;;;;;;;;;;27.70;99.90;;;;;;5072537;28;20284;-70
2022/01/01 01:07:34;;;;;;;;;;;27.70;99.90;;;;;;5072392;28;19956;-69
2022/01/01 01:10:01;;;;;;;;;;;28.20;99.90;;;;;;5071587;28;20389;-69
2022/01/01 01:12:38;;;;;;;;;;;28.40;99.90;;;;;;5071825;28;19970;-70
2022/01/01 01:15:05;;;;;;;;;;;28.00;99.90;;;;;;5072022;28;19916;-70
2022/01/01 01:17:31;;;;;;;;;;;27.70;99.90;;;;;;5071209;28;19914;-69
2022/01/01 01:19:58;;;;;;;;;;;28.00;99.90;;;;;;5071589;28;19909;-69
2022/01/01 01:22:26;;;;;;;;;;;28.30;99.90;;;;;;5071760;28;20131;-69
2022/01/01 01:24:53;;;;;;;;;;;28.60;99.90;;;;;;5071657;28;19955;-69
2022/01/01 01:27:20;;;;;;;;;;;28.30;99.90;;;;;;5071496;28;19980;-69
2022/01/01 01:29:47;;;;;;;;;;;28.40;99.90;;;;;;5071317;28;19912;-69
2022/01/01 01:32:14;;;;;;;;;;;28.00;99.90;;;;;;5071300;28;19908;-69
2022/01/01 01:34:40;;;;;;;;;;;27.80;99.90;;;;;;5071611;28;19920;-67
2022/01/01 01:37:07;;;;;;;;;;;27.80;99.90;;;;;;5071645;28;19909;-68
2022/01/01 01:39:33;;;;;;;;;;;27.40;99.90;;;;;;5071498;28;19912;-69
2022/01/01 01:42:00;;;;;;;;;;;27.60;99.90;;;;;;5070861;28;20399;-68
2022/01/01 01:44:32;;;;;;;;;;;27.60;99.90;;;;;;5071496;28;19913;-68
2022/01/01 01:47:02;;;;;;;;;;;27.50;99.90;;;;;;5071416;28;19908;-68
2022/01/01 01:49:29;;;;;;;;;;;27.40;99.90;;;;;;5071407;28;19908;-69
2022/01/01 01:51:56;;;;;;;;;;;27.40;99.90;;;;;;5070802;28;19919;-69
2022/01/01 01:54:23;;;;;;;;;;;27.90;99.90;;;;;;5070869;28;19917;-69
2022/01/01 01:56:50;;;;;;;;;;;28.00;99.90;;;;;;5070925;28;20338;-68
2022/01/01 01:59:17;;;;;;;;;;;27.80;99.90;;;;;;5071216;28;19915;-69
2022/01/01 02:01:44;;;;;;;;;;;27.50;99.90;;;;;;5071224;28;19920;-69
2022/01/01 02:04:10;;;;;;;;;;;27.60;99.90;;;;;;5070861;28;19908;-68
2022/01/01 02:06:39;;;;;;;;;;;27.30;99.90;;;;;;5070872;28;19913;-68
2022/01/01 02:09:05;;;;;;;;;;;27.30;99.90;;;;;;5070521;28;20014;-69
2022/01/01 02:11:32;;;;;;;;;;;27.30;99.90;;;;;;5070995;28;19954;-69
2022/01/01 02:14:03;;;;;;;;;;;27.50;99.90;;;;;;5070634;28;19916;-69
2022/01/01 02:16:49;;;;;;;;;;;27.20;99.90;;;;;;5070980;28;19916;-69
2022/01/01 02:19:16;;;;;;;;;;;27.10;99.90;;;;;;5070756;28;19913;-68
2022/01/01 02:21:42;;;;;;;;;;;27.10;99.90;;;;;;5070489;28;20504;-68
2022/01/01 02:24:09;;;;;;;;;;;27.20;99.90;;;;;;5070597;28;19920;-69
2022/01/01 02:26:36;;;;;;;;;;;27.40;99.90;;;;;;5070728;28;19920;-70
2022/01/01 02:29:03;;;;;;;;;;;27.50;99.90;;;;;;5070832;28;19998;-70
2022/01/01 02:31:31;;;;;;;;;;;27.20;99.90;;;;;;5070487;28;19909;-69
2022/01/01 02:34:08;;;;;;;;;;;27.00;99.90;;;;;;5070529;28;19920;-69
2022/01/01 02:36:39;;;;;;;;;;;27.10;99.90;;;;;;5070712;28;20317;-69
2022/01/01 02:39:23;;;;;;;;;;;27.10;99.90;;;;;;5070631;28;20294;-69
2022/01/01 02:41:51;;;;;;;;;;;27.00;99.90;;;;;;5070120;28;19995;-68
2022/01/01 02:44:20;;;;;;;;;;;27.20;99.90;;;;;;5069054;28;20367;-68
2022/01/01 02:46:46;;;;;;;;;;;27.30;99.90;;;;;;5070445;28;19965;-68
2022/01/01 02:49:13;;;;;;;;;;;27.40;99.90;;;;;;5070200;28;19920;-69
2022/01/01 02:51:39;;;;;;;;;;;27.20;99.90;;;;;;5070494;28;19908;-69
2022/01/01 02:54:06;;;;;;;;;;;26.90;99.90;;;;;;5070186;28;20018;-69
2022/01/01 02:56:33;;;;;;;;;;;26.80;99.90;;;;;;5070236;28;19967;-70
2022/01/01 02:58:59;;;;;;;;;;;26.70;99.90;;;;;;5070538;28;19915;-70
2022/01/01 03:01:26;;;;;;;;;;;26.70;99.90;;;;;;5069896;28;19908;-68
2022/01/01 03:03:53;;;;;;;;;;;26.50;99.90;;;;;;5070091;28;19909;-69
2022/01/01 03:06:20;;;;;;;;;;;26.50;99.90;;;;;;5073923;28;19966;-68
2022/01/01 03:08:52;;;;;;;;;;;26.50;99.90;;;;;;5074221;28;20385;-68
2022/01/01 03:11:19;;;;;;;;;;;26.60;99.90;;;;;;5074239;28;19943;-69
2022/01/01 03:13:46;;;;;;;;;;;26.90;99.90;;;;;;5073629;28;19927;-69
2022/01/01 03:16:13;;;;;;;;;;;26.90;99.90;;;;;;5074256;28;19909;-69
2022/01/01 03:18:40;;;;;;;;;;;27.20;99.90;;;;;;5074395;28;19915;-69
2022/01/01 03:21:07;;;;;;;;;;;27.40;99.90;;;;;;5074352;28;19908;-69
2022/01/01 03:23:34;;;;;;;;;;;27.20;99.90;;;;;;5074135;28;19939;-68
2022/01/01 03:26:01;;;;;;;;;;;27.00;99.90;;;;;;5073887;28;19958;-68
2022/01/01 03:28:28;;;;;;;;;;;26.90;99.90;;;;;;5073679;28;19970;-69
2022/01/01 03:30:54;;;;;;;;;;;26.80;99.90;;;;;;5074104;28;19909;-69
2022/01/01 03:33:21;;;;;;;;;;;26.70;99.90;;;;;;5106661;28;20317;-68
2022/01/01 03:35:48;;;;;;;;;;;26.60;99.90;;;;;;5073677;28;19959;-67
2022/01/01 03:38:16;;;;;;;;;;;26.50;99.90;;;;;;5073702;28;19951;-68
2022/01/01 03:40:43;;;;;;;;;;;26.40;99.90;;;;;;5073570;28;19908;-68
2022/01/01 03:43:09;;;;;;;;;;;26.40;99.90;;;;;;5073917;28;20351;-67
2022/01/01 03:45:39;;;;;;;;;;;26.40;99.90;;;;;;5074669;28;20350;-68
2022/01/01 03:48:06;;;;;;;;;;;26.50;99.90;;;;;;5075568;28;20007;-68
2022/01/01 03:50:33;;;;;;;;;;;26.40;99.90;;;;;;5075749;28;19915;-68
2022/01/01 03:53:00;;;;;;;;;;;26.30;99.90;;;;;;5075607;28;19908;-69
2022/01/01 03:55:27;;;;;;;;;;;26.40;99.90;;;;;;5075397;28;19908;-69
2022/01/01 03:57:53;;;;;;;;;;;26.30;99.90;;;;;;5075394;28;19916;-68
2022/01/01 04:00:20;;;;;;;;;;;26.10;99.90;;;;;;5075579;28;20377;-68
2022/01/01 04:02:47;;;;;;;;;;;26.20;99.90;;;;;;5075652;28;19999;-69
2022/01/01 04:05:13;;;;;;;;;;;26.10;99.90;;;;;;5075516;28;19916;-68
2022/01/01 04:07:40;;;;;;;;;;;25.90;99.90;;;;;;5075432;28;19915;-67
2022/01/01 04:10:07;;;;;;;;;;;25.80;99.90;;;;;;5074806;28;19931;-69
2022/01/01 04:12:33;;;;;;;;;;;25.60;99.90;;;;;;5075319;28;19908;-68
2022/01/01 04:15:02;;;;;;;;;;;25.70;99.90;;;;;;5075241;28;20264;-69
2022/01/01 04:17:29;;;;;;;;;;;25.70;99.90;;;;;;5075021;28;19909;-67
2022/01/01 04:19:55;;;;;;;;;;;25.50;99.90;;;;;;5074932;28;19916;-69
2022/01/01 04:22:22;;;;;;;;;;;25.60;99.90;;;;;;5075222;28;20004;-70
2022/01/01 04:24:49;;;;;;;;;;;25.70;99.90;;;;;;5075110;28;19908;-70
2022/01/01 04:27:15;;;;;;;;;;;25.80;99.90;;;;;;5075319;28;19916;-68
2022/01/01 04:29:44;;;;;;;;;;;25.70;99.90;;;;;;5075103;28;19915;-70
2022/01/01 04:32:13;;;;;;;;;;;25.60;99.90;;;;;;5074660;28;20273;-70
2022/01/01 04:34:40;;;;;;;;;;;25.60;99.90;;;;;;5074931;28;19921;-70
2022/01/01 04:37:13;;;;;;;;;;;25.60;99.90;;;;;;5074876;28;19908;-70
2022/01/01 04:39:40;;;;;;;;;;;25.60;99.90;;;;;;5074821;28;19940;-70
2022/01/01 04:42:07;;;;;;;;;;;25.50;99.90;;;;;;5074408;28;19913;-69
2022/01/01 04:44:33;;;;;;;;;;;25.50;99.90;;;;;;5074865;28;19915;-70
2022/01/01 04:47:00;;;;;;;;;;;25.60;99.90;;;;;;5074675;28;20011;-70
2022/01/01 04:49:26;;;;;;;;;;;25.80;99.90;;;;;;5074713;28;20005;-70
2022/01/01 04:51:54;;;;;;;;;;;25.70;99.90;;;;;;5074675;28;19908;-70
2022/01/01 04:54:21;;;;;;;;;;;25.80;99.90;;;;;;5074746;28;19923;-70
2022/01/01 04:56:48;;;;;;;;;;;25.90;99.90;;;;;;5074519;28;19908;-70
2022/01/01 04:59:16;;;;;;;;;;;25.80;99.90;;;;;;5074353;28;20654;-69
2022/01/01 05:01:43;;;;;;;;;;;25.90;99.90;;;;;;5074250;28;19915;-69
2022/01/01 05:04:10;;;;;;;;;;;25.90;99.90;;;;;;5074265;28;19915;-69
2022/01/01 05:06:37;;;;;;;;;;;25.60;99.90;;;;;;5074349;28;19912;-69
2022/01/01 05:09:03;;;;;;;;;;;25.50;99.90;;;;;;5074173;28;19923;-69
2022/01/01 05:11:30;;;;;;;;;;;25.50;99.90;;;;;;5074156;28;20003;-69
2022/01/01 05:13:57;;;;;;;;;;;25.60;99.90;;;;;;5074013;28;19916;-70
2022/01/01 05:16:23;;;;;;;;;;;25.60;99.90;;;;;;5074399;28;19909;-71
2022/01/01 05:18:50;;;;;;;;;;;25.60;99.90;;;;;;5073888;28;19948;-70
2022/01/01 05:21:17;;;;;;;;;;;25.80;99.90;;;;;;5074093;28;19943;-71
2022/01/01 05:23:43;;;;;;;;;;;25.90;99.90;;;;;;5074160;28;19915;-70
2022/01/01 05:26:10;;;;;;;;;;;25.90;99.90;;;;;;5073543;28;19908;-70
2022/01/01 05:28:37;;;;;;;;;;;25.80;99.90;;;;;;5072944;28;19931;-70
2022/01/01 05:31:04;;;;;;;;;;;25.70;99.90;;;;;;5073883;28;19909;-70
2022/01/01 05:33:31;;;;;;;;;;;25.70;99.90;;;;;;5073828;28;19916;-70
2022/01/01 05:35:57;;;;;;;;;;;25.70;99.90;;;;;;5073608;28;19908;-70
2022/01/01 05:38:24;;;;;;;;;;;25.60;99.90;;;;;;5073586;28;19908;-70
2022/01/01 05:40:51;;;;;;;;;;;25.50;99.90;;;;;;5073558;28;19962;-70
2022/01/01 05:43:17;;;;;;;;;;;25.40;99.90;;;;;;5073614;28;20397;-70
2022/01/01 05:45:44;;;;;;;;;;;25.30;99.90;;;;;;5073669;28;19936;-71
2022/01/01 05:48:11;;;;;;;;;;;25.50;99.90;;;;;;5073570;28;20301;-70
2022/01/01 05:50:38;;;;;;;;;;;25.40;99.90;;;;;;5073533;28;20394;-71
2022/01/01 05:53:04;;;;;;;;;;;25.20;99.90;;;;;;5073509;28;19978;-70
2022/01/01 05:55:31;;;;;;;;;;;25.20;99.90;;;;;;5073283;28;19909;-70
2022/01/01 05:57:58;;;;;;;;;;;25.10;99.90;;;;;;5073154;28;19908;-70
2022/01/01 06:00:24;;;;;;;;;;;25.10;99.90;;;;;;5073327;28;19908;-70
2022/01/01 06:02:51;;;;;;;;;;;25.20;99.90;;;;;;5073255;28;19916;-71
2022/01/01 06:05:18;;;;;;;;;;;25.20;99.90;;;;;;5073263;28;19954;-71
2022/01/01 06:07:45;;;;;;;;;;;25.30;99.90;;;;;;5073115;28;19909;-70
2022/01/01 06:10:11;;;;;;;;;;;25.00;99.90;;;;;;5072698;28;19963;-69
2022/01/01 06:12:39;;;;;;;;;;;25.00;99.90;;;;;;5073281;28;19912;-71
2022/01/01 06:15:09;;;;;;;;;;;24.90;99.90;;;;;;5072284;28;20142;-70
2022/01/01 06:17:36;;;;;;;;;;;24.60;99.90;;;;;;5073157;28;19912;-70
2022/01/01 06:20:03;;;;;;;;;;;24.60;99.90;;;;;;5072697;28;19941;-70
2022/01/01 06:22:30;;;;;;;;;;;24.60;99.90;;;;;;5072939;28;20339;-71
2022/01/01 06:24:56;;;;;;;;;;;24.50;99.90;;;;;;5072732;28;19909;-70
2022/01/01 06:27:23;;;;;;;;;;;24.70;99.90;;;;;;5072836;28;19908;-71
2022/01/01 06:29:50;;;;;;;;;;;24.80;99.90;;;;;;5072569;28;20434;-71
2022/01/01 06:32:16;;;;;;;;;;;24.70;99.90;;;;;;5072690;28;19909;-70
2022/01/01 06:34:43;;;;;;;;;;;24.50;99.90;;;;;;5072564;28;19916;-71
2022/01/01 06:37:10;;;;;;;;;;;24.40;99.90;;;;;;5072856;28;20306;-70
2022/01/01 06:39:36;;;;;;;;;;;24.20;99.90;;;;;;5072368;28;20007;-70
2022/01/01 06:42:03;;;;;;;;;;;24.10;99.90;;;;;;5072307;28;20296;-70
2022/01/01 06:44:30;;;;;;;;;;;24.20;99.90;;;;;;5072588;28;19908;-71
2022/01/01 06:46:56;;;;;;;;;;;24.30;99.90;;;;;;5072658;28;19909;-71
2022/01/01 06:49:23;;;;;;;;;;;24.30;99.90;;;;;;5072441;28;19932;-70
2022/01/01 06:51:50;;;;;;;;;;;24.30;99.90;;;;;;5072434;28;20375;-70
2022/01/01 06:54:16;;;;;;;;;;;24.30;99.90;;;;;;5072427;28;19944;-70
2022/01/01 06:56:43;;;;;;;;;;;24.30;99.90;;;;;;5072670;28;19908;-70
2022/01/01 06:59:10;;;;;;;;;;;24.30;99.90;;;;;;5072459;28;20314;-70
2022/01/01 07:01:37;;;;;;;;;;;24.20;99.90;;;;;;5072423;28;19908;-70
2022/01/01 07:04:04;;;;;;;;;;;24.00;99.90;;;;;;5072164;28;20366;-70
2022/01/01 07:06:31;;;;;;;;;;;24.00;99.90;;;;;;5072232;28;19912;-71
2022/01/01 07:08:57;;;;;;;;;;;24.10;99.90;;;;;;5072154;28;19909;-70
2022/01/01 07:11:24;;;;;;;;;;;24.10;99.90;;;;;;5072384;28;20294;-71
2022/01/01 07:13:51;;;;;;;;;;;24.20;99.90;;;;;;5070976;28;20359;-70
2022/01/01 07:16:17;;;;;;;;;;;24.10;99.90;;;;;;5072458;28;19909;-69
2022/01/01 07:18:44;;;;;;;;;;;24.00;99.90;;;;;;5072217;28;20412;-69
2022/01/01 07:21:11;;;;;;;;;;;24.10;99.90;;;;;;5072332;28;19997;-69
2022/01/01 07:23:37;;;;;;;;;;;24.00;99.90;;;;;;5072300;28;19912;-69
2022/01/01 07:26:04;;;;;;;;;;;23.90;99.90;;;;;;5071917;28;20003;-70
2022/01/01 07:28:31;;;;;;;;;;;23.90;99.90;;;;;;5072312;28;19972;-70
2022/01/01 07:30:57;;;;;;;;;;;24.00;99.90;;;;;;5072276;28;19909;-69
2022/01/01 07:33:24;;;;;;;;;;;23.90;99.90;;;;;;5071972;28;19916;-70
2022/01/01 07:35:50;;;;;;;;;;;24.00;99.90;;;;;;5072025;28;19916;-70
2022/01/01 07:38:17;;;;;;;;;;;23.90;99.90;;;;;;5072217;28;19962;-69
2022/01/01 07:40:44;;;;;;;;;;;23.90;99.90;;;;;;5072071;28;19912;-70
2022/01/01 07:43:14;;;;;;;;;;;23.90;99.90;;;;;;5071960;28;20411;-70
2022/01/01 07:45:41;;;;;;;;;;;23.90;99.90;;;;;;5072103;28;19978;-70
2022/01/01 07:48:08;;;;;;;;;;;23.90;99.90;;;;;;5071711;28;20318;-70
2022/01/01 07:50:35;;;;;;;;;;;23.90;99.90;;;;;;5072427;28;19909;-70
2022/01/01 07:53:02;;;;;;;;;;;23.90;99.90;;;;;;5075720;28;19931;-70
2022/01/01 07:55:29;;;;;;;;;;;23.90;99.90;;;;;;5075413;28;20367;-70
2022/01/01 07:57:56;;;;;;;;;;;23.90;99.90;;;;;;5075717;28;19919;-70
2022/01/01 08:00:31;;;;;;;;;;;23.80;99.90;;;;;;5075837;28;20378;-70
2022/01/01 08:02:58;;;;;;;;;;;23.80;99.90;;;;;;5074388;28;19908;-71
2022/01/01 08:05:24;;;;;;;;;;;23.80;99.90;;;;;;5075732;28;19920;-71
2022/01/01 08:07:51;;;;;;;;;;;23.80;99.90;;;;;;5075252;28;20270;-71
2022/01/01 08:10:20;;;;;;;;;;;23.70;99.90;;;;;;5075116;28;20005;-69
2022/01/01 08:12:47;;;;;;;;;;;23.70;99.90;;;;;;5075410;28;19912;-70
2022/01/01 08:15:14;;;;;;;;;;;23.60;99.90;;;;;;5074999;28;19978;-70
2022/01/01 08:17:40;;;;;;;;;;;23.60;99.90;;;;;;5075244;28;19912;-70
2022/01/01 08:20:07;;;;;;;;;;;23.70;99.90;;;;;;5075009;28;19908;-70
2022/01/01 08:22:34;;;;;;;;;;;23.70;99.90;;;;;;5075085;28;20275;-70
2022/01/01 08:25:01;;;;;;;;;;;23.80;99.90;;;;;;5074475;28;19908;-70
2022/01/01 08:27:28;;;;;;;;;;;23.80;99.90;;;;;;5075225;28;20329;-70
2022/01/01 08:29:54;;;;;;;;;;;23.80;99.90;;;;;;5074748;28;19908;-70
2022/01/01 08:32:21;;;;;;;;;;;23.80;99.90;;;;;;5074891;28;19936;-70
2022/01/01 08:34:48;;;;;;;;;;;23.80;99.90;;;;;;5074739;28;19924;-70
2022/01/01 08:37:14;;;;;;;;;;;23.80;99.90;;;;;;5074857;28;19908;-70
2022/01/01 08:39:41;;;;;;;;;;;23.80;99.90;;;;;;5074395;28;19912;-70
2022/01/01 08:42:09;;;;;;;;;;;23.80;99.90;;;;;;5074468;28;20087;-70
2022/01/01 08:44:36;;;;;;;;;;;23.70;99.90;;;;;;5074812;28;19944;-69
2022/01/01 08:47:03;;;;;;;;;;;23.60;99.90;;;;;;5074875;28;20313;-69
2022/01/01 08:49:30;;;;;;;;;;;23.60;99.90;;;;;;5074613;28;19908;-70
2022/01/01 08:51:56;;;;;;;;;;;23.60;99.90;;;;;;5074173;28;19912;-69
2022/01/01 08:54:23;;;;;;;;;;;23.60;99.90;;;;;;5073681;28;19954;-69
2022/01/01 08:56:50;;;;;;;;;;;23.50;99.90;;;;;;5074392;28;19915;-69
2022/01/01 08:59:16;;;;;;;;;;;23.50;99.90;;;;;;5074603;28;19912;-69
2022/01/01 09:01:43;;;;;;;;;;;23.50;99.90;;;;;;5073717;28;20393;-68
2022/01/01 09:04:10;;;;;;;;;;;23.40;99.90;;;;;;5073375;28;19915;-70
2022/01/01 09:06:37;;;;;;;;;;;23.50;99.90;;;;;;5074425;28;20339;-70
2022/01/01 09:09:03;;;;;;;;;;;23.40;99.90;;;;;;5073541;28;20371;-70
2022/01/01 09:11:30;;;;;;;;;;;23.50;99.90;;;;;;5074125;28;20230;-70
2022/01/01 09:13:56;;;;;;;;;;;23.40;99.90;;;;;;5074018;28;19917;-70
2022/01/01 09:16:29;;;;;;;;;;;23.50;99.90;;;;;;5074265;28;19908;-70
2022/01/01 09:18:56;;;;;;;;;;;23.40;99.90;;;;;;5074059;28;19916;-69
2022/01/01 09:21:23;;;;;;;;;;;23.40;99.90;;;;;;5074040;28;19908;-70
2022/01/01 09:23:50;;;;;;;;;;;23.40;99.90;;;;;;5073398;28;19909;-70
2022/01/01 09:26:16;;;;;;;;;;;23.30;99.90;;;;;;5073979;28;19909;-70
2022/01/01 09:28:43;;;;;;;;;;;23.30;99.90;;;;;;5074083;28;19908;-70
2022/01/01 09:31:10;;;;;;;;;;;23.30;99.90;;;;;;5073912;28;20358;-70
2022/01/01 09:33:36;;;;;;;;;;;23.30;99.90;;;;;;5073788;28;19924;-70
2022/01/01 09:36:04;;;;;;;;;;;23.30;99.90;;;;;;5073675;28;19916;-70
2022/01/01 09:38:34;;;;;;;;;;;23.20;99.90;;;;;;5072868;28;20289;-70
2022/01/01 09:41:02;;;;;;;;;;;23.20;99.90;;;;;;5073726;28;19909;-69
2022/01/01 09:43:30;;;;;;;;;;;23.20;99.90;;;;;;5073471;28;19947;-70
2022/01/01 09:45:57;;;;;;;;;;;23.20;99.90;;;;;;5073285;28;20375;-69
2022/01/01 09:48:24;;;;;;;;;;;23.20;99.90;;;;;;5073506;28;20003;-69
2022/01/01 09:50:56;;;;;;;;;;;23.10;99.90;;;;;;5073457;28;19909;-70
2022/01/01 09:53:24;;;;;;;;;;;23.10;99.90;;;;;;5072695;28;20377;-70
2022/01/01 09:55:52;;;;;;;;;;;23.10;99.90;;;;;;5073013;28;19999;-68
2022/01/01 09:58:22;;;;;;;;;;;23.10;99.90;;;;;;5073326;28;20444;-70
2022/01/01 10:00:50;;;;;;;;;;;23.10;99.90;;;;;;5073314;28;20336;-71
2022/01/01 10:03:16;;;;;;;;;;;23.10;99.90;;;;;;5073364;28;19908;-71
2022/01/01 10:05:58;;;;;;;;;;;23.10;99.90;;;;;;5072663;28;19956;-70
2022/01/01 10:08:25;;;;;;;;;;;23.10;99.90;;;;;;5072936;28;20096;-71
2022/01/01 10:10:53;;;;;;;;;;;23.10;99.90;;;;;;5072833;28;19920;-71
2022/01/01 10:13:25;;;;;;;;;;;23.10;99.90;;;;;;5072747;28;19942;-71
2022/01/01 10:15:53;;;;;;;;;;;23.10;99.90;;;;;;5072869;28;19909;-70
2022/01/01 10:18:24;;;;;;;;;;;23.10;99.90;;;;;;5073170;28;19908;-70
2022/01/01 10:21:02;;;;;;;;;;;23.10;99.90;;;;;;5073219;28;19908;-70
2022/01/01 10:23:30;;;;;;;;;;;23.10;99.90;;;;;;5072977;28;20309;-69
2022/01/01 10:29:02;;;;;;;;;;;23.00;99.90;;;;;;5073276;28;19931;-70
2022/01/01 10:31:29;;;;;;;;;;;23.00;99.90;;;;;;5072875;28;20359;-70
2022/01/01 10:33:55;;;;;;;;;;;23.00;99.90;;;;;;5072488;28;19994;-70
2022/01/01 10:36:22;;;;;;;;;;;23.00;99.90;;;;;;5072737;28;19995;-70
2022/01/01 10:38:50;;;;;;;;;;;23.00;99.90;;;;;;5072600;28;19908;-71
2022/01/01 10:41:17;;;;;;;;;;;23.10;99.90;;;;;;5072587;28;19921;-70
2022/01/01 10:43:46;;;;;;;;;;;23.00;99.90;;;;;;5072449;28;20413;-69
2022/01/01 10:46:14;;;;;;;;;;;23.00;99.90;;;;;;5072579;28;20308;-70
2022/01/01 10:48:54;;;;;;;;;;;23.00;99.90;;;;;;5072502;28;19954;-70
2022/01/01 10:51:21;;;;;;;;;;;23.10;99.90;;;;;;5072564;28;20326;-70
2022/01/01 10:54:00;;;;;;;;;;;23.00;99.90;;;;;;5072011;28;19942;-70
2022/01/01 10:56:26;;;;;;;;;;;22.90;99.90;;;;;;5072574;28;19951;-71
2022/01/01 10:59:03;;;;;;;;;;;23.00;99.90;;;;;;5072438;28;20274;-71
2022/01/01 11:01:32;;;;;;;;;;;22.90;99.90;;;;;;5072440;28;19970;-71
2022/01/01 11:04:00;;;;;;;;;;;23.00;99.90;;;;;;5072166;28;19943;-71
2022/01/01 11:06:32;;;;;;;;;;;23.00;99.90;;;;;;5072576;28;19962;-71
2022/01/01 11:08:59;;;;;;;;;;;23.00;99.90;;;;;;5072465;28;19909;-71
2022/01/01 11:11:26;;;;;;;;;;;23.00;99.90;;;;;;5072558;28;19920;-70
2022/01/01 11:13:52;;;;;;;;;;;23.00;99.90;;;;;;5071990;28;19916;-70
2022/01/01 11:16:19;;;;;;;;;;;22.90;99.90;;;;;;5072138;28;19909;-70
2022/01/01 11:18:47;;;;;;;;;;;22.90;99.90;;;;;;5072074;28;19913;-70
2022/01/01 11:21:14;;;;;;;;;;;22.80;99.90;;;;;;5072276;28;19915;-70
2022/01/01 11:23:41;;;;;;;;;;;22.90;99.90;;;;;;5072034;28;19909;-70
2022/01/01 11:26:08;;;;;;;;;;;22.80;99.90;;;;;;5073379;28;19944;-69
2022/01/01 11:28:38;;;;;;;;;;;22.80;99.90;;;;;;5076091;28;19909;-70
2022/01/01 11:31:09;;;;;;;;;;;22.70;99.90;;;;;;5075950;28;19913;-70
2022/01/01 11:33:36;;;;;;;;;;;22.70;99.90;;;;;;5076097;28;20294;-70
2022/01/01 11:36:03;;;;;;;;;;;22.70;99.90;;;;;;5075912;28;19913;-70
2022/01/01 11:38:31;;;;;;;;;;;22.70;99.90;;;;;;5076072;28;19956;-70
2022/01/01 11:41:08;;;;;;;;;;;22.70;99.90;;;;;;5075927;28;19977;-70
2022/01/01 11:43:38;;;;;;;;;;;22.70;99.90;;;;;;5075979;28;20335;-70
2022/01/01 11:46:06;;;;;;;;;;;22.70;99.90;;;;;;5075747;28;19944;-70
2022/01/01 11:48:36;;;;;;;;;;;22.60;99.90;;;;;;5075947;28;19909;-70
2022/01/01 11:51:28;;;;;;;;;;;22.60;99.90;;;;;;5075685;28;19908;-70
2022/01/01 11:54:15;;;;;;;;;;;22.60;99.90;;;;;;5072423;28;19916;-69
2022/01/01 11:56:51;;;;;;;;;;;22.60;99.90;;;;;;5075607;28;19908;-70
2022/01/01 11:59:36;;;;;;;;;;;22.60;99.90;;;;;;5075512;28;19909;-70
2022/01/01 12:02:21;;;;;;;;;;;22.60;99.90;;;;;;5075393;28;20315;-70
2022/01/01 12:04:51;;;;;;;;;;;22.70;99.90;;;;;;5075461;28;19908;-70
2022/01/01 12:07:22;;;;;;;;;;;22.70;99.90;;;;;;5075065;28;19927;-70
2022/01/01 12:09:58;;;;;;;;;;;22.60;99.90;;;;;;5074537;28;19966;-69
2022/01/01 12:12:51;;;;;;;;;;;22.60;99.90;;;;;;5075392;28;19915;-71
2022/01/01 12:15:20;;;;;;;;;;;22.60;99.90;;;;;;5074061;28;19917;-71
2022/01/01 12:17:53;;;;;;;;;;;22.60;99.90;;;;;;5107525;28;19908;-70
2022/01/01 12:20:22;;;;;;;;;;;22.60;99.90;;;;;;5107129;28;19908;-70
2022/01/01 12:22:50;;;;;;;;;;;22.60;99.90;;;;;;5074536;28;19994;-71
2022/01/01 12:25:18;;;;;;;;;;;22.60;99.90;;;;;;5074953;28;19909;-71
2022/01/01 12:27:47;;;;;;;;;;;22.60;99.90;;;;;;5075161;28;19913;-71
2022/01/01 12:30:37;;;;;;;;;;;22.60;99.90;;;;;;5075200;28;19916;-71
2022/01/01 12:33:04;;;;;;;;;;;22.50;99.90;;;;;;5072038;28;19940;-71
2022/01/01 12:35:43;;;;;;;;;;;22.50;99.90;;;;;;5074832;28;20316;-70
2022/01/01 12:38:11;;;;;;;;;;;22.50;99.90;;;;;;5073653;28;19999;-71
2022/01/01 12:41:00;;;;;;;;;;;22.50;99.90;;;;;;5074605;28;20373;-70
2022/01/01 12:43:28;;;;;;;;;;;22.50;99.90;;;;;;5071834;28;19909;-70
2022/01/01 12:45:55;;;;;;;;;;;22.50;99.90;;;;;;5074601;28;19999;-71
2022/01/01 12:48:25;;;;;;;;;;;22.50;99.90;;;;;;5074744;28;19955;-70
2022/01/01 12:50:56;;;;;;;;;;;22.50;99.90;;;;;;5074867;28;19954;-71
2022/01/01 12:53:24;;;;;;;;;;;22.40;99.90;;;;;;5074515;28;19908;-71
2022/01/01 12:56:00;;;;;;;;;;;22.40;99.90;;;;;;5074327;28;19909;-71
2022/01/01 12:58:31;;;;;;;;;;;22.40;99.90;;;;;;5074561;28;20000;-71
2022/01/01 13:01:06;;;;;;;;;;;22.40;99.90;;;;;;5074592;28;20414;-71
2022/01/01 13:03:33;;;;;;;;;;;22.40;99.90;;;;;;5074620;28;19931;-71
2022/01/01 13:05:59;;;;;;;;;;;22.40;99.90;;;;;;5074266;28;19908;-70
2022/01/01 13:08:26;;;;;;;;;;;22.30;99.90;;;;;;5074140;28;20282;-70
2022/01/01 13:10:53;;;;;;;;;;;22.30;99.90;;;;;;5074180;28;19920;-70
2022/01/01 13:13:20;;;;;;;;;;;22.30;99.90;;;;;;5074385;28;19919;-70
2022/01/01 13:15:46;;;;;;;;;;;22.30;99.90;;;;;;5074308;28;19923;-71
2022/01/01 13:18:15;;;;;;;;;;;22.30;99.90;;;;;;5074199;28;19912;-71
2022/01/01 13:20:45;;;;;;;;;;;22.20;99.90;;;;;;5074119;28;19909;-71
2022/01/01 13:23:15;;;;;;;;;;;22.30;99.90;;;;;;5074025;28;20347;-71
2022/01/01 13:25:42;;;;;;;;;;;22.30;99.90;;;;;;5074067;28;20347;-71
2022/01/01 13:28:09;;;;;;;;;;;22.30;99.90;;;;;;5073847;28;20295;-71
2022/01/01 13:30:36;;;;;;;;;;;22.20;99.90;;;;;;5073956;28;19920;-71
2022/01/01 13:33:02;;;;;;;;;;;22.20;99.90;;;;;;5106446;28;19909;-71
2022/01/01 13:35:30;;;;;;;;;;;22.20;99.90;;;;;;5073747;28;19920;-70
2022/01/01 13:38:00;;;;;;;;;;;22.20;99.90;;;;;;5073403;28;19986;-70
2022/01/01 13:40:26;;;;;;;;;;;22.20;99.90;;;;;;5073786;28;19913;-70
2022/01/01 13:42:53;;;;;;;;;;;22.20;99.90;;;;;;5073855;28;19908;-71
2022/01/01 13:45:23;;;;;;;;;;;22.20;99.90;;;;;;5073539;28;19908;-70
2022/01/01 13:47:50;;;;;;;;;;;22.10;99.90;;;;;;5073089;28;20333;-71
2022/01/01 13:50:17;;;;;;;;;;;22.10;99.90;;;;;;5073016;28;20394;-70
2022/01/01 13:52:55;;;;;;;;;;;22.20;99.90;;;;;;5073365;28;19917;-71
2022/01/01 13:55:27;;;;;;;;;;;22.10;99.90;;;;;;5073266;28;19974;-71
2022/01/01 13:57:58;;;;;;;;;;;22.10;99.90;;;;;;5073251;28;19908;-71
2022/01/01 14:00:25;;;;;;;;;;;22.10;99.90;;;;;;5073578;28;20346;-71
2022/01/01 14:02:57;;;;;;;;;;;22.10;99.90;;;;;;5073251;28;19908;-71
2022/01/01 14:05:25;;;;;;;;;;;22.10;99.90;;;;;;5073231;28;19917;-71
2022/01/01 14:08:11;;;;;;;;;;;22.10;99.90;;;;;;5072905;28;19913;-71
2022/01/01 14:10:38;;;;;;;;;;;22.00;99.90;;;;;;5072781;28;20374;-71
2022/01/01 14:13:05;;;;;;;;;;;22.00;99.90;;;;;;5073137;28;19909;-70
2022/01/01 14:15:32;;;;;;;;;;;22.00;99.90;;;;;;5073113;28;19916;-71
2022/01/01 14:18:07;;;;;;;;;;;22.10;99.90;;;;;;5072995;28;19944;-71
2022/01/01 14:20:37;;;;;;;;;;;22.00;99.90;;;;;;5073183;28;19908;-70
2022/01/01 14:23:05;;;;;;;;;;;22.00;99.90;;;;;;5072740;28;19908;-71
2022/01/01 14:25:33;;;;;;;;;;;22.00;99.90;;;;;;5072965;28;19920;-70